createdAt,value
2022-10-13T00:00:00.233Z,1.1
2022-10-13T00:05:00.231Z,1.1
2022-10-13T00:10:00.210Z,1.1
2022-10-13T00:15:00.265Z,1.1
2022-10-13T00:20:00.290Z,1.1
2022-10-13T00:25:00.272Z,1.1
2022-10-13T00:30:00.277Z,1.1
2022-10-13T00:35:00.296Z,1.1
2022-10-13T00:40:00.259Z,1.1
2022-10-13T00:45:00.270Z,1.1
2022-10-13T00:50:00.292Z,1.1
2022-10-13T00:55:00.289Z,1.1
2022-10-13T01:00:00.298Z,1.1
2022-10-13T01:05:00.296Z,1.1
2022-10-13T01:10:00.314Z,1.1
2022-10-13T01:15:00.306Z,1.1
2022-10-13T01:20:00.298Z,1.1
2022-10-13T01:25:00.307Z,1.1
2022-10-13T01:30:00.330Z,1.1
2022-10-13T01:35:00.342Z,1.1
2022-10-13T01:40:00.338Z,1.1
2022-10-13T01:45:00.327Z,1.1
2022-10-13T01:50:00.345Z,1.1
2022-10-13T01:55:00.341Z,1.1
2022-10-13T02:00:00.349Z,1.1
2022-10-13T02:05:01.205Z,1.1
2022-10-13T02:10:01.243Z,1.1
2022-10-13T02:15:01.191Z,1.1
2022-10-13T02:20:01.199Z,1.1
2022-10-13T02:25:01.199Z,1.1
2022-10-13T02:30:01.217Z,1.1
2022-10-13T02:35:01.205Z,1.1
2022-10-13T02:40:01.219Z,1.1
2022-10-13T02:45:01.211Z,1.1
2022-10-13T02:50:01.238Z,1.1
2022-10-13T02:55:01.279Z,1.1
2022-10-13T03:00:01.226Z,1.1
2022-10-13T03:05:01.295Z,1.1
2022-10-13T03:10:01.259Z,1.1
2022-10-13T03:15:01.311Z,1.1
2022-10-13T03:20:01.256Z,1.1
2022-10-13T03:25:01.283Z,1.1
2022-10-13T03:30:01.257Z,1.1
2022-10-13T03:35:01.317Z,1.1
2022-10-13T03:40:01.278Z,1.1
2022-10-13T03:45:01.349Z,1.1
2022-10-13T03:50:01.394Z,1.1
2022-10-13T03:55:01.341Z,1.1
2022-10-13T04:00:01.372Z,1.1
2022-10-13T04:05:01.485Z,1.1
2022-10-13T04:10:01.321Z,1.1
2022-10-13T04:15:01.325Z,1.1
2022-10-13T04:20:01.583Z,1.1
2022-10-13T04:25:01.396Z,1.1
2022-10-13T04:30:01.454Z,1.1
2022-10-13T04:35:01.460Z,1.1
2022-10-13T04:40:01.381Z,1.1
2022-10-13T04:45:01.379Z,1.1
2022-10-13T04:50:01.410Z,1.1
2022-10-13T04:55:01.368Z,1.1
2022-10-13T05:00:01.372Z,1.1
2022-10-13T05:05:00.194Z,1.1
2022-10-13T05:10:00.239Z,1.1
2022-10-13T05:15:00.252Z,1.1
2022-10-13T05:20:00.272Z,3.2
2022-10-13T05:25:00.257Z,8.8
2022-10-13T05:30:00.252Z,26.5
2022-10-13T05:35:00.309Z,51.7
2022-10-13T05:40:00.335Z,90.8
2022-10-13T05:45:00.310Z,123.9
2022-10-13T05:50:00.336Z,161.2
2022-10-13T05:55:00.301Z,244.9
2022-10-13T06:00:00.362Z,367.8
2022-10-13T06:05:00.323Z,419.6
2022-10-13T06:10:00.336Z,440.1
2022-10-13T06:15:00.301Z,440.1
2022-10-13T06:20:00.313Z,514.1
2022-10-13T06:25:00.312Z,653
2022-10-13T06:30:00.407Z,718.6
2022-10-13T06:35:00.348Z,762.9
2022-10-13T06:40:00.360Z,829.5
2022-10-13T06:45:00.362Z,912.8
2022-10-13T06:50:00.395Z,718.6
2022-10-13T06:55:00.418Z,880.6
2022-10-13T07:00:00.393Z,901.9
2022-10-13T07:05:00.410Z,934.9
2022-10-13T07:10:00.389Z,753.8
2022-10-13T07:15:00.375Z,693.3
2022-10-13T07:20:04.965Z,1132
2022-10-13T07:25:00.382Z,1145.6
2022-10-13T07:30:00.384Z,1291.2
2022-10-13T07:35:00.395Z,1582.3
2022-10-13T07:40:00.390Z,1870.6
2022-10-13T07:45:00.419Z,2265.1
2022-10-13T07:50:00.398Z,1915.9
2022-10-13T07:55:00.445Z,1699.9
2022-10-13T08:00:00.437Z,2159.2
2022-10-13T08:05:00.404Z,1893.1
2022-10-13T08:10:00.421Z,2108.2
2022-10-13T08:15:03.457Z,2347.8
2022-10-13T08:20:00.431Z,1915.9
2022-10-13T08:25:00.481Z,2376
2022-10-13T08:30:00.428Z,3442.3
2022-10-13T08:35:00.513Z,2742.6
2022-10-13T08:40:00.452Z,1915.9
2022-10-13T08:45:39.991Z,1582.3
2022-10-13T08:50:01.117Z,1620.5
2022-10-13T08:55:00.537Z,1291.2
2022-10-13T09:00:00.552Z,1455.2
2022-10-13T09:05:00.499Z,1659.7
2022-10-13T09:10:00.522Z,1387.2
2022-10-13T09:15:00.535Z,1306.7
2022-10-13T09:20:00.537Z,1322.4
2022-10-13T09:25:00.503Z,1508.3
2022-10-13T09:30:00.575Z,1526.4
2022-10-13T09:35:00.504Z,1260.7
2022-10-13T09:40:00.539Z,1437.9
2022-10-13T09:45:00.505Z,1306.7
2022-10-13T09:50:06.378Z,1437.9
2022-10-13T09:55:00.579Z,1762
2022-10-13T10:05:00.727Z,2433.5
2022-10-13T10:10:00.764Z,1962.2
2022-10-13T10:15:00.826Z,2058.4
2022-10-13T10:20:00.688Z,3442.3
2022-10-13T10:25:00.724Z,2911.7
2022-10-13T10:30:00.610Z,3442.3
2022-10-13T10:35:00.554Z,2677.9
2022-10-13T10:40:00.569Z,2009.8
2022-10-13T10:45:00.577Z,2742.6
2022-10-13T10:50:00.573Z,2522.4
2022-10-13T10:55:00.574Z,3018
2022-10-13T11:00:00.443Z,2877.1
2022-10-13T11:05:05.232Z,3568
2022-10-13T11:10:00.179Z,2710.1
2022-10-13T11:15:00.222Z,3698.5
2022-10-13T11:20:00.187Z,4269.1
2022-10-13T11:25:00.195Z,3525.6
2022-10-13T11:30:00.287Z,2877.1
2022-10-13T11:35:00.206Z,3483.7
2022-10-13T11:40:00.246Z,3654.5
2022-10-13T11:45:00.236Z,4069.8
2022-10-13T11:50:00.251Z,2911.7
2022-10-13T11:55:00.194Z,3281.6
2022-10-13T12:00:00.251Z,3973.5
2022-10-13T12:05:00.230Z,3654.5
2022-10-13T12:10:00.253Z,3973.5
2022-10-13T12:15:04.167Z,4425
2022-10-13T12:20:00.254Z,5826.2
2022-10-13T12:25:00.289Z,4754.3
2022-10-13T12:30:00.272Z,4697.8
2022-10-13T12:35:00.255Z,3442.3
2022-10-13T12:40:00.281Z,3204.1
2022-10-13T12:45:00.300Z,3165.8
2022-10-13T12:50:00.280Z,3128.2
2022-10-13T12:55:00.282Z,3204.1
2022-10-13T13:00:00.288Z,3525.6
2022-10-13T13:05:00.337Z,4021.3
2022-10-13T13:10:00.330Z,3654.5
2022-10-13T13:15:00.294Z,3742.9
2022-10-13T13:20:00.306Z,3525.6
2022-10-13T13:25:00.336Z,2583.5
2022-10-13T13:30:00.438Z,2159.2
2022-10-13T13:35:00.342Z,1962.2
2022-10-13T13:40:00.431Z,2265.1
2022-10-13T13:45:00.412Z,2319.9
2022-10-13T13:50:00.444Z,2710.1
2022-10-13T13:55:00.356Z,2492.4
2022-10-13T14:00:00.375Z,1804.7
2022-10-13T14:05:00.360Z,1893.1
2022-10-13T14:10:02.128Z,2211.5
2022-10-13T14:15:00.368Z,2211.5
2022-10-13T14:20:00.378Z,1699.9
2022-10-13T14:25:00.406Z,1053.6
2022-10-13T14:30:00.370Z,1245.7
2022-10-13T14:35:00.392Z,1159.4
2022-10-13T14:40:00.519Z,946.1
2022-10-13T14:45:00.408Z,969
2022-10-13T14:50:00.501Z,1028.7
2022-10-13T14:55:00.407Z,1159.4
2022-10-13T15:00:02.126Z,1092.1
2022-10-13T15:05:00.406Z,1354.4
2022-10-13T15:10:05.881Z,1659.7
2022-10-13T15:15:00.441Z,1544.8
2022-10-13T15:20:00.427Z,1291.2
2022-10-13T15:25:00.424Z,800.3
2022-10-13T15:30:02.399Z,520.3
2022-10-13T15:35:00.406Z,414.5
2022-10-13T15:40:00.490Z,526.6
2022-10-13T15:45:11.473Z,508
2022-10-13T15:50:00.462Z,399.9
2022-10-13T15:55:00.498Z,276.1
2022-10-13T16:00:00.484Z,236.3
2022-10-13T16:05:00.489Z,219.9
2022-10-13T16:10:00.474Z,151.8
2022-10-13T16:15:00.496Z,113.9
2022-10-13T16:20:00.487Z,58.3
2022-10-13T16:25:00.484Z,49.3
2022-10-13T16:30:00.491Z,70.6
2022-10-13T16:35:00.497Z,53
2022-10-13T16:40:00.503Z,30.9
2022-10-13T16:45:00.509Z,13.1
2022-10-13T16:50:00.525Z,7.6
2022-10-13T16:55:00.510Z,3
2022-10-13T17:00:00.612Z,1.1
2022-10-13T17:05:00.293Z,1.1
2022-10-13T17:10:00.320Z,1.1
2022-10-13T17:15:00.293Z,1.1
2022-10-13T17:20:00.215Z,1.1
2022-10-13T17:25:00.201Z,1.1
2022-10-13T17:30:00.293Z,1.1
2022-10-13T17:35:00.201Z,1.1
2022-10-13T17:40:00.243Z,1.1
2022-10-13T17:45:00.332Z,1.1
2022-10-13T17:50:00.247Z,1.1
2022-10-13T17:55:00.227Z,1.1
2022-10-13T18:00:00.265Z,1.1
2022-10-13T18:05:00.231Z,1.1
2022-10-13T18:10:00.377Z,1.1
2022-10-13T18:15:00.429Z,1.1
2022-10-13T18:20:00.421Z,1.1
2022-10-13T18:25:00.455Z,1.1
2022-10-13T18:30:00.426Z,1.1
2022-10-13T18:35:00.281Z,1.1
2022-10-13T18:40:00.293Z,1.1
2022-10-13T18:45:00.279Z,1.1
2022-10-13T18:50:00.287Z,1.1
2022-10-13T18:55:00.301Z,1.1
2022-10-13T19:00:00.346Z,1.1
2022-10-13T19:05:00.319Z,1.1
2022-10-13T19:10:00.373Z,1.1
2022-10-13T19:15:00.357Z,1.1
2022-10-13T19:20:00.418Z,1.1
2022-10-13T19:25:00.382Z,1.1
2022-10-13T19:30:00.405Z,1.1
2022-10-13T19:35:00.493Z,1.1
2022-10-13T19:40:00.332Z,1.1
2022-10-13T19:45:00.446Z,1.1
2022-10-13T19:50:00.341Z,1.1
2022-10-13T19:55:00.414Z,1.1
2022-10-13T20:00:00.337Z,1.1
2022-10-13T20:05:00.357Z,1.1
2022-10-13T20:10:00.377Z,1.1
2022-10-13T20:15:00.368Z,1.1
2022-10-13T20:20:00.382Z,1.1
2022-10-13T20:25:00.377Z,1.1
2022-10-13T20:30:00.416Z,1.1
2022-10-13T20:35:00.428Z,1.1
2022-10-13T20:40:00.417Z,1.1
2022-10-13T20:45:00.400Z,1.1
2022-10-13T20:50:00.400Z,1.1
2022-10-13T20:55:00.408Z,1.1
2022-10-13T21:00:00.424Z,1.1
2022-10-13T21:05:00.425Z,1.1
2022-10-13T21:10:00.477Z,1.1
2022-10-13T21:15:00.465Z,1.1
2022-10-13T21:20:00.415Z,1.1
2022-10-13T21:25:00.437Z,1.1
2022-10-13T21:30:00.446Z,1.1
2022-10-13T21:35:00.493Z,1.1
2022-10-13T21:40:00.486Z,1.1
2022-10-13T21:45:00.461Z,1.1
2022-10-13T21:50:00.499Z,1.1
2022-10-13T21:55:00.481Z,1.1
2022-10-13T22:00:00.487Z,1.1
2022-10-13T22:05:00.489Z,1.1
2022-10-13T22:10:00.663Z,1.1
2022-10-13T22:15:00.624Z,1.1
2022-10-13T22:20:00.566Z,1.1
2022-10-13T22:25:00.584Z,1.1
2022-10-13T22:30:00.712Z,1.1
2022-10-13T22:35:00.658Z,1.1
2022-10-13T22:40:00.774Z,1.1
2022-10-13T22:45:00.657Z,1.1
2022-10-13T22:50:00.718Z,1.1
2022-10-13T22:55:00.699Z,1.1
2022-10-13T23:00:00.457Z,1.1
2022-10-13T23:05:00.445Z,1.1
2022-10-13T23:10:00.234Z,1.1
2022-10-13T23:15:00.181Z,1.1
2022-10-13T23:20:00.287Z,1.1
2022-10-13T23:25:00.215Z,1.1
2022-10-13T23:30:00.225Z,1.1
2022-10-13T23:35:00.200Z,1.1
2022-10-13T23:40:00.221Z,1.1
2022-10-13T23:45:00.221Z,1.1
2022-10-13T23:50:00.270Z,1.1
2022-10-13T23:55:00.219Z,1.1
